TimeEST,TemperatureF,Dew PointF,Humidity,Sea Level PressureIn,VisibilityMPH,Wind Direction,Wind SpeedMPH,Gust SpeedMPH,PrecipitationIn,Events,Conditions,WindDirDegrees,DateUTC
12:53 AM,30.9,27.0,85,30.26,8.0,WNW,8.1,-,N/A,,Overcast,300,2013-03-07 05:53:00
1:53 AM,30.9,27.0,85,30.27,8.0,West,6.9,-,N/A,,Overcast,280,2013-03-07 06:53:00
2:53 AM,30.9,26.1,82,30.28,9.0,West,8.1,-,N/A,,Overcast,280,2013-03-07 07:53:00
3:53 AM,30.9,26.1,82,30.29,8.0,WNW,6.9,-,N/A,,Overcast,290,2013-03-07 08:53:00
4:53 AM,30.9,26.1,82,30.30,8.0,WNW,8.1,-,N/A,,Overcast,290,2013-03-07 09:53:00
5:53 AM,30.9,26.1,82,30.31,8.0,WNW,6.9,-,N/A,,Overcast,290,2013-03-07 10:53:00
6:53 AM,30.0,26.1,85,30.32,8.0,WNW,5.8,-,N/A,,Overcast,300,2013-03-07 11:53:00
7:00 AM,30.2,26.6,86,30.30,8.0,NW,5.8,-,N/A,,Overcast,310,2013-03-07 12:00:00
7:30 AM,30.2,26.6,86,30.31,6.0,WNW,5.8,-,N/A,,Overcast,300,2013-03-07 12:30:00
7:53 AM,30.9,26.1,82,30.35,6.0,WNW,5.8,-,N/A,,Haze,300,2013-03-07 12:53:00
8:53 AM,30.9,27.0,85,30.37,6.0,WNW,5.8,-,N/A,,Overcast,300,2013-03-07 13:53:00
9:14 AM,30.2,26.6,86,30.34,6.0,WNW,3.5,-,N/A,,Overcast,300,2013-03-07 14:14:00
9:26 AM,32.0,26.6,80,30.34,6.0,WNW,4.6,-,N/A,,Haze,300,2013-03-07 14:26:00
9:53 AM,32.0,27.0,82,30.37,6.0,NW,5.8,-,N/A,,Haze,310,2013-03-07 14:53:00
10:53 AM,33.1,28.0,82,30.38,7.0,NNW,4.6,-,N/A,,Overcast,330,2013-03-07 15:53:00
11:53 AM,34.0,28.0,79,30.38,7.0,NW,4.6,-,N/A,,Overcast,320,2013-03-07 16:53:00
12:12 PM,35.6,28.4,75,30.35,8.0,NW,5.8,-,N/A,,Overcast,320,2013-03-07 17:12:00
12:53 PM,36.0,28.0,73,30.38,8.0,NW,4.6,-,N/A,,Overcast,310,2013-03-07 17:53:00
1:53 PM,37.0,28.0,70,30.36,10.0,NW,5.8,-,N/A,,Overcast,310,2013-03-07 18:53:00
2:53 PM,37.0,27.0,67,30.35,10.0,NW,5.8,-,N/A,,Overcast,310,2013-03-07 19:53:00
3:53 PM,37.0,24.1,59,30.36,10.0,NNW,5.8,-,N/A,,Overcast,340,2013-03-07 20:53:00
4:53 PM,37.0,26.1,65,30.37,10.0,NW,5.8,-,N/A,,Overcast,320,2013-03-07 21:53:00
5:53 PM,36.0,27.0,70,30.37,10.0,NNW,6.9,-,N/A,,Overcast,330,2013-03-07 22:53:00
6:12 PM,35.6,26.6,70,30.35,10.0,North,3.5,-,N/A,,Overcast,360,2013-03-07 23:12:00
6:40 PM,35.6,24.8,65,30.35,10.0,North,6.9,-,N/A,,Overcast,360,2013-03-07 23:40:00
6:53 PM,36.0,24.1,62,30.38,10.0,NNW,4.6,-,N/A,,Overcast,330,2013-03-07 23:53:00
7:41 PM,35.6,26.6,70,30.36,10.0,North,3.5,-,N/A,,Overcast,350,2013-03-08 00:41:00
7:53 PM,35.1,26.1,70,30.39,10.0,North,5.8,-,N/A,,Overcast,360,2013-03-08 00:53:00
8:18 PM,35.6,24.8,65,30.37,10.0,North,4.6,-,N/A,,Overcast,10,2013-03-08 01:18:00
8:53 PM,35.1,25.0,67,30.39,10.0,North,8.1,-,N/A,,Overcast,360,2013-03-08 01:53:00
9:53 PM,35.1,24.1,64,30.38,10.0,Calm,Calm,-,N/A,,Overcast,0,2013-03-08 02:53:00
10:25 PM,33.8,24.8,70,30.36,10.0,Calm,Calm,-,N/A,,Overcast,0,2013-03-08 03:25:00
10:53 PM,34.0,24.1,67,30.39,10.0,Calm,Calm,-,N/A,,Overcast,0,2013-03-08 03:53:00
11:53 PM,34.0,23.0,64,30.40,10.0,North,3.5,-,N/A,,Overcast,10,2013-03-08 04:53:00